createdAt,value
2022-12-31T00:00:22.867Z,51.05
2022-12-31T00:02:50.575Z,45.78
2022-12-31T00:05:18.054Z,55.47
2022-12-31T00:07:45.475Z,50.05
2022-12-31T00:10:12.863Z,57.63
2022-12-31T00:12:40.435Z,51.70
2022-12-31T00:15:08.016Z,61.42
2022-12-31T00:17:35.383Z,50.67
2022-12-31T00:20:02.705Z,52.90
2022-12-31T00:22:30.232Z,51.55
2022-12-31T00:24:57.772Z,57.17
2022-12-31T00:27:25.190Z,52.72
2022-12-31T00:29:53.571Z,54.63
2022-12-31T00:32:20.923Z,52.30
2022-12-31T00:34:48.313Z,54.35
2022-12-31T00:37:15.823Z,58.80
2022-12-31T00:39:43.280Z,52.35
2022-12-31T00:42:10.669Z,53.20
2022-12-31T00:44:38.008Z,52.03
2022-12-31T00:47:05.396Z,53.20
2022-12-31T00:49:32.866Z,55.85
2022-12-31T00:52:00.227Z,53.47
2022-12-31T00:54:27.611Z,53.13
2022-12-31T00:56:55.025Z,50.05
2022-12-31T00:59:22.466Z,54.80
2022-12-31T01:01:50.295Z,54.30
2022-12-31T01:04:20.960Z,54.15
2022-12-31T01:06:48.419Z,53.95
2022-12-31T01:09:16.680Z,51.67
2022-12-31T01:11:44.326Z,45.85
2022-12-31T01:14:15.124Z,51.13
2022-12-31T01:16:48.342Z,47.83
2022-12-31T01:19:27.762Z,45.10
2022-12-31T01:21:56.525Z,48.40
2022-12-31T01:24:24.068Z,49.72
2022-12-31T01:26:51.889Z,51.20
2022-12-31T01:29:19.422Z,47.92
2022-12-31T01:31:46.903Z,51.10
2022-12-31T01:34:14.273Z,44.33
2022-12-31T01:36:41.686Z,48.22
2022-12-31T01:39:09.654Z,51.10
2022-12-31T01:41:40.896Z,49.40
2022-12-31T01:44:11.290Z,56.38
2022-12-31T01:46:59.022Z,49.65
2022-12-31T01:49:37.066Z,52.40
2022-12-31T01:52:13.027Z,47.88
2022-12-31T01:54:46.442Z,50.35
2022-12-31T01:57:14.881Z,49.67
2022-12-31T01:59:44.646Z,49.67
2022-12-31T02:02:13.096Z,46.63
2022-12-31T02:04:40.684Z,50.72
2022-12-31T02:07:10.068Z,53.05
2022-12-31T02:09:39.655Z,51.72
2022-12-31T02:12:09.462Z,49.17
2022-12-31T02:14:44.605Z,54.78
2022-12-31T02:17:59.063Z,56.30
2022-12-31T02:20:42.915Z,51.13
2022-12-31T02:23:26.852Z,53.05
2022-12-31T02:25:57.378Z,50.33
2022-12-31T02:29:02.325Z,49.67
2022-12-31T02:31:47.216Z,48.25
2022-12-31T02:34:31.263Z,53.83
2022-12-31T02:37:03.327Z,52.92
2022-12-31T02:39:32.452Z,59.30
2022-12-31T02:42:00.431Z,57.60
2022-12-31T02:44:31.969Z,54.38
2022-12-31T02:47:08.552Z,51.67
2022-12-31T02:50:09.417Z,51.58
2022-12-31T02:52:55.730Z,51.80
2022-12-31T02:55:32.182Z,53.33
2022-12-31T02:58:11.751Z,57.78
2022-12-31T03:01:08.278Z,56.42
2022-12-31T03:03:38.197Z,56.35
2022-12-31T03:06:08.348Z,49.50
2022-12-31T03:08:59.063Z,53.72
2022-12-31T03:11:45.076Z,46.33
2022-12-31T03:14:12.606Z,58.03
2022-12-31T03:16:40.199Z,55.85
2022-12-31T03:19:26.333Z,50.92
2022-12-31T03:22:12.617Z,55.35
2022-12-31T03:24:58.468Z,56.53
2022-12-31T03:27:25.877Z,53.78
2022-12-31T03:29:53.413Z,56.65
2022-12-31T03:32:20.981Z,52.83
2022-12-31T03:34:48.441Z,49.90
2022-12-31T03:37:15.816Z,58.30
2022-12-31T03:39:43.416Z,54.60
2022-12-31T03:42:10.851Z,45.40
2022-12-31T03:44:38.489Z,61.78
2022-12-31T03:47:05.899Z,55.00
2022-12-31T03:49:33.293Z,48.50
2022-12-31T03:52:03.047Z,48.60
2022-12-31T03:54:30.597Z,51.63
2022-12-31T03:57:00.291Z,53.88
2022-12-31T03:59:27.950Z,57.33
2022-12-31T04:01:55.878Z,49.47
2022-12-31T04:04:23.580Z,46.92
2022-12-31T04:06:51.041Z,49.67
2022-12-31T04:09:18.467Z,48.80
2022-12-31T04:11:45.947Z,43.92
2022-12-31T04:14:13.422Z,45.45
2022-12-31T04:16:40.878Z,49.13
2022-12-31T04:19:08.404Z,48.33
2022-12-31T04:21:35.896Z,49.65
2022-12-31T04:24:04.160Z,47.67
2022-12-31T04:26:31.464Z,47.90
2022-12-31T04:28:59.044Z,45.58
2022-12-31T04:31:26.773Z,54.30
2022-12-31T04:33:54.514Z,48.17
2022-12-31T04:36:22.413Z,48.80
2022-12-31T04:38:50.056Z,46.58
2022-12-31T04:41:17.522Z,45.63
2022-12-31T04:43:46.177Z,43.15
2022-12-31T04:46:14.504Z,47.47
2022-12-31T04:48:42.097Z,50.30
2022-12-31T04:51:09.849Z,43.50
2022-12-31T04:53:37.453Z,48.15
2022-12-31T04:56:05.590Z,47.03
2022-12-31T04:58:34.359Z,49.58
2022-12-31T05:01:02.543Z,53.65
2022-12-31T05:03:30.476Z,47.92
2022-12-31T05:06:02.829Z,51.08
2022-12-31T05:08:30.557Z,52.05
2022-12-31T05:10:58.748Z,48.33
2022-12-31T05:13:32.782Z,52.20
2022-12-31T05:16:01.961Z,52.92
2022-12-31T05:18:30.243Z,54.13
2022-12-31T05:20:57.891Z,46.92
2022-12-31T05:23:25.764Z,46.47
2022-12-31T05:25:53.603Z,52.25
2022-12-31T05:28:21.622Z,46.13
2022-12-31T05:30:50.828Z,50.47
2022-12-31T05:33:19.349Z,48.17
2022-12-31T05:35:46.927Z,45.78
2022-12-31T05:38:14.542Z,44.42
2022-12-31T05:40:41.980Z,43.33
2022-12-31T05:43:09.395Z,54.22
2022-12-31T05:45:37.194Z,45.47
2022-12-31T05:48:04.936Z,50.60
2022-12-31T05:50:32.605Z,49.22
2022-12-31T05:53:04.827Z,49.30
2022-12-31T05:55:32.474Z,50.97
2022-12-31T05:57:59.855Z,47.97
2022-12-31T06:00:27.327Z,44.08
2022-12-31T06:02:55.068Z,43.60
2022-12-31T06:05:26.089Z,44.40
2022-12-31T06:07:54.038Z,46.30
2022-12-31T06:10:21.626Z,42.47
2022-12-31T06:12:49.091Z,44.13
2022-12-31T06:15:16.640Z,37.05
2022-12-31T06:17:44.043Z,37.15
2022-12-31T06:20:13.426Z,43.20
2022-12-31T06:22:40.927Z,39.60
2022-12-31T06:25:08.784Z,41.97
2022-12-31T06:27:36.145Z,40.05
2022-12-31T06:30:03.887Z,36.22
2022-12-31T06:32:31.617Z,38.40
2022-12-31T06:34:59.015Z,37.90
2022-12-31T06:37:27.377Z,42.03
2022-12-31T06:39:54.754Z,41.63
2022-12-31T06:42:22.153Z,46.25
2022-12-31T06:44:49.580Z,49.33
2022-12-31T06:47:16.994Z,54.15
2022-12-31T06:49:44.303Z,50.63
2022-12-31T06:52:11.691Z,55.20
2022-12-31T06:54:39.365Z,55.10
2022-12-31T06:57:08.785Z,55.92
2022-12-31T06:59:36.656Z,53.45
2022-12-31T07:02:10.945Z,48.08
2022-12-31T07:04:56.697Z,61.95
2022-12-31T07:07:38.295Z,57.45
2022-12-31T07:10:11.778Z,59.88
2022-12-31T07:12:54.173Z,62.03
2022-12-31T07:15:56.751Z,62.25
2022-12-31T07:18:44.414Z,62.35
2022-12-31T07:21:15.027Z,60.45
2022-12-31T07:23:43.224Z,62.13
2022-12-31T07:26:43.153Z,65.45
2022-12-31T07:29:22.736Z,67.30
2022-12-31T07:31:53.146Z,65.80
2022-12-31T07:34:42.024Z,63.97
2022-12-31T07:37:37.136Z,59.60
2022-12-31T07:40:10.571Z,57.03
2022-12-31T07:42:59.662Z,55.47
2022-12-31T07:45:37.791Z,58.85
2022-12-31T07:48:21.385Z,52.85
2022-12-31T07:50:49.195Z,59.13
2022-12-31T07:53:16.970Z,58.28
2022-12-31T07:55:44.678Z,51.58
2022-12-31T07:58:33.402Z,54.75
2022-12-31T08:01:03.301Z,56.90
2022-12-31T08:03:54.923Z,53.47
2022-12-31T08:06:39.926Z,53.50
2022-12-31T08:09:12.100Z,52.63
2022-12-31T08:12:01.408Z,51.80
2022-12-31T08:14:30.009Z,52.90
2022-12-31T08:16:58.114Z,58.63
2022-12-31T08:19:29.855Z,54.50
2022-12-31T08:22:03.077Z,48.40
2022-12-31T08:24:59.170Z,46.83
2022-12-31T08:27:47.079Z,57.10
2022-12-31T08:30:17.700Z,47.88
2022-12-31T08:33:22.973Z,47.67
2022-12-31T08:35:50.302Z,49.60
2022-12-31T08:38:20.775Z,49.83
2022-12-31T08:41:01.391Z,48.20
2022-12-31T08:43:28.763Z,48.72
2022-12-31T08:45:57.940Z,47.08
2022-12-31T08:48:28.339Z,47.17
2022-12-31T08:50:56.050Z,43.75
2022-12-31T08:53:23.971Z,47.58
2022-12-31T08:56:01.307Z,52.90
2022-12-31T08:58:39.845Z,48.10
2022-12-31T09:01:08.560Z,47.38
2022-12-31T09:03:57.723Z,41.85
2022-12-31T09:06:41.537Z,49.58
2022-12-31T09:09:33.143Z,42.13
2022-12-31T09:12:28.426Z,46.50
2022-12-31T09:15:01.504Z,48.85
2022-12-31T09:17:42.700Z,42.58
2022-12-31T09:20:36.312Z,47.45
2022-12-31T09:23:10.069Z,53.08
2022-12-31T09:25:46.903Z,50.95
2022-12-31T09:28:17.936Z,47.42
2022-12-31T09:31:04.291Z,47.23
2022-12-31T09:33:39.638Z,53.40
2022-12-31T09:36:11.024Z,52.90
2022-12-31T09:38:45.730Z,50.83
2022-12-31T09:41:42.494Z,50.53
2022-12-31T09:44:25.046Z,52.30
2022-12-31T09:47:20.192Z,46.90
2022-12-31T09:50:16.098Z,49.28
2022-12-31T09:53:01.864Z,46.03
2022-12-31T09:55:32.215Z,45.15
2022-12-31T09:58:24.885Z,45.72
2022-12-31T10:01:36.072Z,49.40
2022-12-31T10:04:31.192Z,43.47
2022-12-31T10:07:16.912Z,47.80
2022-12-31T10:09:53.400Z,44.17
2022-12-31T10:12:33.080Z,43.63
2022-12-31T10:15:18.824Z,43.35
2022-12-31T10:17:56.094Z,43.67
2022-12-31T10:20:56.100Z,44.60
2022-12-31T10:23:38.524Z,44.55
2022-12-31T10:26:10.678Z,43.55
2022-12-31T10:28:43.765Z,47.15
2022-12-31T10:31:20.247Z,46.88
2022-12-31T10:34:26.276Z,41.55
2022-12-31T10:36:55.992Z,44.03
2022-12-31T10:40:00.938Z,41.72
2022-12-31T10:42:28.612Z,39.63
2022-12-31T10:45:37.923Z,41.42
2022-12-31T10:48:29.389Z,39.15
2022-12-31T10:50:59.407Z,39.50
2022-12-31T10:53:42.311Z,41.00
2022-12-31T10:56:31.072Z,37.60
2022-12-31T10:59:32.389Z,35.03
2022-12-31T11:02:18.926Z,36.25
2022-12-31T11:05:11.191Z,34.20
2022-12-31T11:08:14.032Z,37.83
2022-12-31T11:11:00.008Z,38.03
2022-12-31T11:13:40.288Z,39.85
2022-12-31T11:16:07.751Z,40.10
2022-12-31T11:18:43.806Z,39.47
2022-12-31T11:21:36.283Z,37.78
2022-12-31T11:24:31.705Z,34.75
2022-12-31T11:29:47.999Z,34.92
2022-12-31T11:32:48.397Z,32.90
2022-12-31T11:35:37.707Z,35.00
2022-12-31T11:38:26.435Z,36.20
2022-12-31T11:41:05.536Z,32.35
2022-12-31T11:43:39.530Z,32.75
2022-12-31T11:46:21.324Z,34.08
2022-12-31T11:49:12.547Z,32.20
2022-12-31T11:51:50.331Z,30.55
2022-12-31T11:54:42.574Z,42.05
2022-12-31T11:57:18.775Z,32.28
2022-12-31T11:59:47.200Z,28.45
2022-12-31T12:02:24.313Z,31.98
2022-12-31T12:04:53.426Z,31.20
2022-12-31T12:07:21.831Z,29.17
2022-12-31T12:09:50.120Z,30.50
2022-12-31T12:12:17.605Z,30.27
2022-12-31T12:14:51.727Z,35.75
2022-12-31T12:17:32.105Z,30.05
2022-12-31T12:20:17.000Z,33.22
2022-12-31T12:22:53.053Z,34.42
2022-12-31T12:25:23.807Z,32.47
2022-12-31T12:27:51.676Z,29.48
2022-12-31T12:30:21.675Z,29.52
2022-12-31T12:33:16.188Z,34.20
2022-12-31T12:35:44.135Z,30.92
2022-12-31T12:38:23.147Z,32.30
2022-12-31T12:41:23.490Z,33.85
2022-12-31T12:44:02.260Z,29.77
2022-12-31T12:46:34.333Z,32.50
2022-12-31T12:49:03.201Z,33.95
2022-12-31T12:51:54.796Z,32.33
2022-12-31T12:54:34.315Z,30.23
2022-12-31T12:57:16.907Z,27.83
2022-12-31T13:00:02.201Z,32.58
2022-12-31T13:03:00.706Z,30.73
2022-12-31T13:05:40.211Z,34.65
2022-12-31T13:08:26.068Z,31.17
2022-12-31T13:11:11.465Z,33.78
2022-12-31T13:13:52.385Z,32.60
2022-12-31T13:16:22.603Z,34.83
2022-12-31T13:18:54.055Z,33.47
2022-12-31T13:21:21.399Z,36.75
2022-12-31T13:24:16.328Z,33.38
2022-12-31T13:26:48.575Z,35.25
2022-12-31T13:29:20.904Z,38.45
2022-12-31T13:31:50.138Z,37.30
2022-12-31T13:34:29.570Z,29.85
2022-12-31T13:37:02.305Z,35.90
2022-12-31T13:39:33.695Z,37.00
2022-12-31T13:42:14.877Z,37.17
2022-12-31T13:44:49.707Z,35.85
2022-12-31T13:47:32.057Z,34.38
2022-12-31T13:50:12.552Z,36.17
2022-12-31T13:52:48.483Z,35.05
2022-12-31T13:55:22.953Z,36.00
2022-12-31T13:58:12.246Z,35.65
2022-12-31T14:00:55.765Z,39.95
2022-12-31T14:03:51.136Z,36.28
2022-12-31T14:06:34.210Z,37.50
2022-12-31T14:09:01.827Z,35.05
2022-12-31T14:11:38.203Z,43.95
2022-12-31T14:14:24.991Z,36.17
2022-12-31T14:16:58.478Z,40.00
2022-12-31T14:20:00.357Z,40.33
2022-12-31T14:22:48.934Z,37.50
2022-12-31T14:25:22.987Z,41.38
2022-12-31T14:27:54.135Z,44.92
2022-12-31T14:30:25.479Z,40.17
2022-12-31T14:33:05.305Z,44.75
2022-12-31T14:36:10.771Z,35.05
2022-12-31T14:39:05.444Z,36.25
2022-12-31T14:41:44.467Z,36.97
2022-12-31T14:44:54.685Z,40.28
2022-12-31T14:47:41.072Z,36.30
2022-12-31T14:50:23.837Z,41.42
2022-12-31T14:53:04.358Z,37.13
2022-12-31T14:55:40.724Z,39.70
2022-12-31T14:58:30.401Z,38.83
2022-12-31T15:01:19.002Z,38.55
2022-12-31T15:03:46.738Z,42.25
2022-12-31T15:06:23.336Z,42.00
2022-12-31T15:09:18.087Z,41.17
2022-12-31T15:11:57.761Z,40.85
2022-12-31T15:14:50.005Z,41.20
2022-12-31T15:20:18.058Z,39.83
2022-12-31T15:22:51.113Z,41.30
2022-12-31T15:25:24.358Z,41.88
2022-12-31T15:27:52.935Z,45.85
2022-12-31T15:30:35.531Z,41.92
2022-12-31T15:33:26.623Z,43.63
2022-12-31T15:35:56.397Z,43.35
2022-12-31T15:38:29.875Z,44.33
2022-12-31T15:40:57.915Z,46.20
2022-12-31T15:43:25.346Z,43.88
2022-12-31T15:45:55.261Z,42.88
2022-12-31T15:48:43.432Z,45.50
2022-12-31T15:51:18.362Z,44.92
2022-12-31T15:53:53.033Z,49.63
2022-12-31T15:56:50.055Z,48.33
2022-12-31T15:59:20.329Z,49.75
2022-12-31T16:01:47.994Z,48.45
2022-12-31T16:04:21.464Z,53.72
2022-12-31T16:06:51.265Z,50.60
2022-12-31T16:09:21.248Z,44.47
2022-12-31T16:11:49.300Z,48.47
2022-12-31T16:14:34.136Z,52.05
2022-12-31T16:17:03.238Z,54.25
2022-12-31T16:19:34.959Z,50.47
2022-12-31T16:22:17.225Z,48.88
2022-12-31T16:27:35.411Z,51.08
2022-12-31T16:30:19.047Z,47.50
2022-12-31T16:32:49.604Z,47.58
2022-12-31T16:35:27.126Z,49.72
2022-12-31T16:38:20.892Z,54.22
2022-12-31T16:41:03.539Z,48.55
2022-12-31T16:43:40.543Z,53.65
2022-12-31T16:46:28.129Z,54.05
2022-12-31T16:49:03.084Z,51.78
2022-12-31T16:51:32.950Z,49.65
2022-12-31T16:54:01.618Z,49.53
2022-12-31T16:56:36.508Z,55.00
2022-12-31T16:59:12.589Z,48.20
2022-12-31T17:01:41.659Z,44.30
2022-12-31T17:04:14.821Z,49.67
2022-12-31T17:06:43.193Z,52.92
2022-12-31T17:09:20.791Z,53.00
2022-12-31T17:12:12.136Z,45.70
2022-12-31T17:14:51.262Z,49.70
2022-12-31T17:17:27.825Z,48.00
2022-12-31T17:20:11.438Z,49.95
2022-12-31T17:22:44.159Z,47.70
2022-12-31T17:25:24.127Z,54.75
2022-12-31T17:27:54.076Z,49.60
2022-12-31T17:30:36.503Z,53.28
2022-12-31T17:33:12.847Z,46.42
2022-12-31T17:35:42.947Z,55.13
2022-12-31T17:38:22.517Z,51.97
2022-12-31T17:41:14.141Z,54.83
2022-12-31T17:43:42.627Z,54.13
2022-12-31T17:46:16.190Z,58.72
2022-12-31T17:48:46.135Z,53.75
2022-12-31T17:51:13.524Z,50.08
2022-12-31T17:53:40.848Z,53.15
2022-12-31T17:56:18.187Z,54.13
2022-12-31T17:58:54.986Z,50.30
2022-12-31T18:01:23.315Z,59.88
2022-12-31T18:03:50.959Z,51.28
2022-12-31T18:06:19.876Z,50.55
2022-12-31T18:08:47.523Z,49.80
2022-12-31T18:11:23.679Z,53.97
2022-12-31T18:13:52.889Z,53.78
2022-12-31T18:16:20.360Z,47.33
2022-12-31T18:18:48.036Z,53.92
2022-12-31T18:21:32.661Z,51.00
2022-12-31T18:26:29.570Z,52.13
2022-12-31T18:28:59.774Z,49.78
2022-12-31T18:31:31.037Z,59.90
2022-12-31T18:33:59.174Z,62.67
2022-12-31T18:36:27.927Z,67.20
2022-12-31T18:38:55.371Z,63.80
2022-12-31T18:41:28.743Z,60.35
2022-12-31T18:43:56.331Z,64.20
2022-12-31T18:46:24.911Z,56.15
2022-12-31T18:48:52.358Z,61.75
2022-12-31T18:51:31.324Z,54.25
2022-12-31T18:54:00.842Z,50.25
2022-12-31T18:56:28.701Z,55.60
2022-12-31T18:58:56.133Z,52.05
2022-12-31T19:01:31.263Z,55.47
2022-12-31T19:04:05.424Z,52.67
2022-12-31T19:06:32.764Z,51.03
2022-12-31T19:09:01.312Z,53.20
2022-12-31T19:11:28.681Z,54.95
2022-12-31T19:13:56.118Z,55.15
2022-12-31T19:16:23.551Z,52.92
2022-12-31T19:18:51.059Z,50.85
2022-12-31T19:21:22.438Z,51.58
2022-12-31T19:23:50.380Z,60.00
2022-12-31T19:26:20.635Z,58.13
2022-12-31T19:28:49.774Z,52.63
2022-12-31T19:31:17.702Z,59.25
2022-12-31T19:33:45.210Z,57.78
2022-12-31T19:36:17.763Z,54.10
2022-12-31T19:38:45.493Z,56.28
2022-12-31T19:41:18.526Z,51.33
2022-12-31T19:43:47.412Z,56.30
2022-12-31T19:46:17.030Z,54.00
2022-12-31T19:48:45.193Z,54.00
2022-12-31T19:51:18.165Z,53.65
2022-12-31T19:53:46.558Z,53.00
2022-12-31T19:56:16.721Z,52.38
2022-12-31T19:58:44.566Z,53.13
2022-12-31T20:01:23.978Z,52.55
2022-12-31T20:03:51.895Z,53.38
2022-12-31T20:06:19.711Z,54.90
2022-12-31T20:08:47.143Z,59.80
2022-12-31T20:11:17.413Z,54.20
2022-12-31T20:13:46.180Z,53.60
2022-12-31T20:16:15.880Z,53.88
2022-12-31T20:18:45.018Z,55.40
2022-12-31T20:21:17.749Z,47.90
2022-12-31T20:23:45.675Z,56.95
2022-12-31T20:26:13.337Z,55.17
2022-12-31T20:28:40.803Z,54.47
2022-12-31T20:31:10.319Z,52.35
2022-12-31T20:33:37.935Z,56.97
2022-12-31T20:36:08.089Z,60.78
2022-12-31T20:38:35.596Z,60.33
2022-12-31T20:41:04.988Z,57.83
2022-12-31T20:43:33.352Z,59.33
2022-12-31T20:46:10.946Z,58.53
2022-12-31T20:48:42.119Z,63.47
2022-12-31T20:51:09.547Z,69.32
2022-12-31T20:53:37.042Z,58.70
2022-12-31T20:56:08.775Z,67.95
2022-12-31T20:58:36.370Z,76.55
2022-12-31T21:01:06.700Z,76.47
2022-12-31T21:04:05.067Z,69.95
2022-12-31T21:08:57.731Z,69.47
2022-12-31T21:11:54.830Z,75.90
2022-12-31T21:14:22.359Z,68.85
2022-12-31T21:16:50.282Z,61.33
2022-12-31T21:19:17.775Z,66.47
2022-12-31T21:21:45.139Z,63.67
2022-12-31T21:24:12.572Z,75.25
2022-12-31T21:26:39.935Z,63.00
2022-12-31T21:29:07.345Z,64.22
2022-12-31T21:31:34.857Z,61.75
2022-12-31T21:34:02.357Z,67.80
2022-12-31T21:36:29.740Z,65.55
2022-12-31T21:38:57.274Z,64.45
2022-12-31T21:41:43.379Z,63.20
2022-12-31T21:44:10.832Z,65.57
2022-12-31T21:46:38.333Z,67.60
2022-12-31T21:49:05.743Z,64.90
2022-12-31T21:51:53.040Z,65.05
2022-12-31T21:54:40.606Z,68.15
2022-12-31T21:57:08.584Z,66.15
2022-12-31T22:00:16.397Z,68.55
2022-12-31T22:03:00.795Z,59.92
2022-12-31T22:05:28.470Z,61.58
2022-12-31T22:07:55.845Z,64.38
2022-12-31T22:10:23.245Z,67.25
2022-12-31T22:12:50.902Z,55.92
2022-12-31T22:15:18.379Z,84.90
2022-12-31T22:17:46.286Z,64.63
2022-12-31T22:20:29.339Z,57.13
2022-12-31T22:22:56.964Z,64.28
2022-12-31T22:25:24.515Z,61.15
2022-12-31T22:28:36.289Z,59.22
2022-12-31T22:30:39.300Z,59.67
2022-12-31T22:33:06.658Z,63.83
2022-12-31T22:35:34.119Z,63.20
2022-12-31T22:38:08.100Z,62.67
2022-12-31T22:40:37.321Z,65.03
2022-12-31T22:43:04.675Z,57.63
2022-12-31T22:45:32.082Z,57.50
2022-12-31T22:47:59.426Z,60.28
2022-12-31T22:50:26.844Z,60.72
2022-12-31T22:52:54.199Z,65.32
2022-12-31T22:55:21.560Z,65.57
2022-12-31T22:57:48.893Z,69.55
2022-12-31T23:00:16.532Z,69.75
2022-12-31T23:02:43.892Z,90.43
2022-12-31T23:05:14.946Z,73.88
2022-12-31T23:10:29.840Z,350.42
2022-12-31T23:12:58.909Z,83.80
2022-12-31T23:15:44.717Z,77.40
2022-12-31T23:18:30.451Z,101.05
2022-12-31T23:21:16.564Z,106.50
2022-12-31T23:23:43.875Z,133.88
2022-12-31T23:26:11.217Z,123.95
2022-12-31T23:28:38.547Z,162.65
2022-12-31T23:31:06.483Z,147.57
2022-12-31T23:33:33.879Z,136.90
2022-12-31T23:36:05.440Z,152.07
2022-12-31T23:38:32.900Z,167.65
2022-12-31T23:41:00.329Z,182.60
2022-12-31T23:43:27.810Z,230.55
2022-12-31T23:45:55.285Z,290.92
2022-12-31T23:48:22.739Z,253.25
2022-12-31T23:50:53.725Z,250.30
2022-12-31T23:53:24.835Z,246.25
2022-12-31T23:55:53.211Z,298.70
2022-12-31T23:58:21.163Z,279.70
